createdAt,value
2022-12-28T00:01:51.709Z,6.25
2022-12-28T00:04:18.438Z,6.35
2022-12-28T00:06:47.447Z,6.65
2022-12-28T00:09:16.387Z,5.90
2022-12-28T00:11:43.100Z,6.53
2022-12-28T00:14:12.019Z,6.40
2022-12-28T00:16:42.165Z,6.90
2022-12-28T00:19:15.112Z,6.95
2022-12-28T00:21:42.966Z,6.65
2022-12-28T00:24:20.571Z,7.20
2022-12-28T00:26:49.666Z,7.18
2022-12-28T00:29:20.100Z,7.55
2022-12-28T00:31:47.026Z,7.57
2022-12-28T00:34:16.723Z,7.30
2022-12-28T00:37:10.161Z,6.78
2022-12-28T00:39:32.516Z,8.38
2022-12-28T00:41:59.210Z,7.95
2022-12-28T00:44:28.377Z,7.85
2022-12-28T00:46:55.328Z,7.63
2022-12-28T00:49:24.333Z,8.32
2022-12-28T00:51:53.573Z,8.05
2022-12-28T00:54:22.568Z,8.30
2022-12-28T00:56:49.468Z,9.10
2022-12-28T00:59:23.513Z,9.18
2022-12-28T01:01:52.540Z,7.82
2022-12-28T01:04:23.920Z,8.63
2022-12-28T01:06:55.509Z,8.27
2022-12-28T01:09:24.808Z,6.50
2022-12-28T01:11:54.000Z,7.50
2022-12-28T01:14:20.729Z,7.35
2022-12-28T01:16:47.655Z,7.63
2022-12-28T01:19:20.151Z,7.55
2022-12-28T01:21:49.736Z,7.22
2022-12-28T01:24:16.719Z,7.40
2022-12-28T01:26:43.602Z,6.63
2022-12-28T01:29:12.480Z,7.70
2022-12-28T01:31:39.302Z,8.20
2022-12-28T01:34:06.100Z,8.07
2022-12-28T01:36:36.867Z,7.75
2022-12-28T01:39:06.314Z,8.18
2022-12-28T01:41:37.084Z,7.78
2022-12-28T01:44:03.792Z,8.30
2022-12-28T01:46:49.884Z,7.47
2022-12-28T01:49:27.088Z,7.78
2022-12-28T01:52:00.707Z,7.95
2022-12-28T01:54:33.178Z,7.93
2022-12-28T01:57:00.156Z,7.80
2022-12-28T01:59:31.415Z,7.53
2022-12-28T02:02:03.531Z,7.47
2022-12-28T02:04:33.087Z,7.93
2022-12-28T02:07:03.275Z,7.22
2022-12-28T02:09:41.083Z,7.22
2022-12-28T02:12:12.337Z,7.68
2022-12-28T02:14:40.662Z,7.47
2022-12-28T02:17:09.611Z,6.65
2022-12-28T02:19:49.013Z,7.40
2022-12-28T02:22:41.197Z,6.65
2022-12-28T02:25:48.005Z,6.30
2022-12-28T02:28:26.987Z,6.40
2022-12-28T02:31:20.638Z,6.88
2022-12-28T02:34:32.502Z,6.63
2022-12-28T02:37:21.086Z,6.88
2022-12-28T02:40:03.055Z,6.72
2022-12-28T02:42:30.591Z,6.60
2022-12-28T02:45:16.075Z,7.20
2022-12-28T02:48:03.080Z,6.88
2022-12-28T02:50:51.729Z,6.82
2022-12-28T02:54:32.542Z,6.53
2022-12-28T02:57:10.190Z,6.22
2022-12-28T02:59:41.592Z,6.43
2022-12-28T03:02:48.180Z,5.90
2022-12-28T03:05:58.186Z,7.25
2022-12-28T03:08:46.512Z,6.15
2022-12-28T03:11:19.164Z,6.30
2022-12-28T03:14:22.670Z,6.80
2022-12-28T03:17:12.246Z,6.65
2022-12-28T03:20:12.243Z,6.50
2022-12-28T03:23:00.321Z,6.35
2022-12-28T03:25:54.109Z,6.40
2022-12-28T03:28:43.686Z,6.60
2022-12-28T03:31:17.687Z,6.05
2022-12-28T03:33:52.749Z,6.43
2022-12-28T03:36:36.060Z,5.97
2022-12-28T03:39:17.652Z,5.57
2022-12-28T03:41:50.220Z,6.07
2022-12-28T03:44:27.480Z,5.78
2022-12-28T03:47:04.843Z,5.38
2022-12-28T03:49:34.094Z,4.85
2022-12-28T03:52:04.109Z,4.90
2022-12-28T03:54:33.133Z,5.28
2022-12-28T03:57:04.646Z,4.50
2022-12-28T03:59:31.382Z,4.93
2022-12-28T04:02:00.328Z,4.75
2022-12-28T04:04:27.209Z,4.10
2022-12-28T04:06:54.101Z,4.30
2022-12-28T04:09:23.101Z,4.40
2022-12-28T04:11:52.141Z,4.38
2022-12-28T04:14:21.099Z,4.57
2022-12-28T04:16:50.329Z,4.70
2022-12-28T04:19:19.538Z,4.03
2022-12-28T04:21:48.727Z,4.40
2022-12-28T04:24:15.464Z,4.65
2022-12-28T04:26:44.837Z,4.40
2022-12-28T04:29:13.746Z,4.50
2022-12-28T04:31:42.438Z,4.40
2022-12-28T04:34:09.214Z,4.28
2022-12-28T04:36:38.387Z,4.35
2022-12-28T04:39:10.278Z,4.78
2022-12-28T04:41:40.240Z,4.30
2022-12-28T04:44:09.194Z,4.55
2022-12-28T04:46:38.308Z,3.80
2022-12-28T04:49:07.350Z,4.28
2022-12-28T04:51:35.240Z,3.92
2022-12-28T04:54:04.168Z,3.78
2022-12-28T04:56:33.153Z,3.80
2022-12-28T04:59:01.125Z,3.47
2022-12-28T05:01:28.287Z,3.58
2022-12-28T05:03:58.259Z,3.33
2022-12-28T05:06:29.452Z,4.10
2022-12-28T05:08:57.579Z,3.70
2022-12-28T05:11:28.672Z,3.70
2022-12-28T05:13:56.460Z,3.85
2022-12-28T05:16:24.896Z,3.45
2022-12-28T05:18:51.761Z,3.92
2022-12-28T05:21:22.521Z,3.17
2022-12-28T05:23:49.775Z,3.45
2022-12-28T05:26:19.473Z,3.55
2022-12-28T05:28:49.194Z,3.47
2022-12-28T05:31:19.771Z,3.60
2022-12-28T05:33:47.623Z,3.40
2022-12-28T05:36:18.348Z,3.40
2022-12-28T05:38:45.525Z,3.28
2022-12-28T05:41:18.356Z,3.70
2022-12-28T05:43:46.182Z,3.13
2022-12-28T05:46:16.173Z,3.30
2022-12-28T05:48:43.630Z,3.30
2022-12-28T05:51:13.359Z,3.45
2022-12-28T05:53:40.748Z,3.67
2022-12-28T05:56:14.295Z,3.92
2022-12-28T05:58:45.892Z,3.90
2022-12-28T06:01:16.940Z,3.30
2022-12-28T06:03:47.092Z,3.25
2022-12-28T06:06:16.539Z,3.80
2022-12-28T06:08:44.536Z,3.60
2022-12-28T06:11:17.277Z,3.63
2022-12-28T06:13:44.328Z,3.05
2022-12-28T06:16:12.683Z,3.70
2022-12-28T06:18:39.748Z,3.75
2022-12-28T06:21:09.474Z,3.75
2022-12-28T06:23:36.529Z,3.30
2022-12-28T06:26:06.428Z,3.85
2022-12-28T06:28:36.116Z,3.63
2022-12-28T06:31:11.556Z,3.70
2022-12-28T06:33:38.710Z,3.95
2022-12-28T06:36:17.751Z,3.85
2022-12-28T06:38:49.248Z,3.28
2022-12-28T06:41:17.023Z,3.28
2022-12-28T06:43:49.651Z,3.78
2022-12-28T06:46:18.424Z,3.67
2022-12-28T06:48:45.688Z,3.92
2022-12-28T06:51:21.241Z,3.67
2022-12-28T06:53:49.737Z,3.50
2022-12-28T06:56:26.658Z,3.60
2022-12-28T06:59:00.353Z,3.72
2022-12-28T07:01:38.245Z,3.28
2022-12-28T07:04:07.451Z,3.35
2022-12-28T07:06:40.253Z,3.50
2022-12-28T07:09:14.324Z,3.17
2022-12-28T07:11:49.362Z,3.08
2022-12-28T07:14:19.190Z,3.08
2022-12-28T07:16:50.038Z,3.20
2022-12-28T07:19:21.994Z,3.57
2022-12-28T07:21:51.273Z,3.13
2022-12-28T07:24:18.012Z,3.55
2022-12-28T07:26:48.574Z,3.30
2022-12-28T07:29:15.287Z,3.30
2022-12-28T07:31:46.027Z,3.30
2022-12-28T07:34:16.681Z,3.10
2022-12-28T07:36:43.901Z,3.28
2022-12-28T07:39:10.774Z,3.65
2022-12-28T07:41:37.643Z,3.13
2022-12-28T07:44:04.559Z,3.47
2022-12-28T07:46:34.624Z,3.20
2022-12-28T07:49:03.522Z,3.25
2022-12-28T07:51:34.826Z,3.20
2022-12-28T07:54:02.243Z,3.47
2022-12-28T07:56:30.714Z,3.30
2022-12-28T07:59:00.382Z,3.50
2022-12-28T08:01:34.566Z,3.60
2022-12-28T08:04:05.161Z,3.70
2022-12-28T08:06:35.699Z,4.20
2022-12-28T08:09:04.296Z,4.00
2022-12-28T08:11:33.959Z,3.70
2022-12-28T08:14:03.422Z,4.45
2022-12-28T08:16:35.409Z,4.78
2022-12-28T08:19:06.999Z,5.55
2022-12-28T08:21:36.516Z,6.20
2022-12-28T08:24:07.022Z,6.40
2022-12-28T08:26:37.922Z,7.20
2022-12-28T08:29:11.032Z,7.40
2022-12-28T08:31:40.582Z,7.97
2022-12-28T08:34:10.718Z,7.50
2022-12-28T08:36:37.580Z,7.85
2022-12-28T08:39:09.112Z,7.45
2022-12-28T08:41:35.852Z,7.65
2022-12-28T08:44:02.951Z,7.32
2022-12-28T08:46:33.040Z,6.40
2022-12-28T08:49:00.758Z,6.00
2022-12-28T08:51:32.192Z,5.57
2022-12-28T08:53:59.545Z,5.07
2022-12-28T08:56:29.606Z,5.63
2022-12-28T08:58:57.351Z,5.40
2022-12-28T09:01:27.371Z,5.45
2022-12-28T09:03:59.582Z,5.10
2022-12-28T09:06:34.690Z,5.25
2022-12-28T09:09:06.195Z,5.90
2022-12-28T09:11:38.259Z,5.85
2022-12-28T09:14:10.181Z,5.28
2022-12-28T09:16:38.539Z,5.22
2022-12-28T09:19:08.534Z,5.53
2022-12-28T09:21:37.675Z,5.63
2022-12-28T09:24:05.661Z,5.72
2022-12-28T09:26:36.893Z,5.90
2022-12-28T09:29:05.853Z,6.05
2022-12-28T09:31:36.972Z,6.47
2022-12-28T09:37:01.107Z,4.95
2022-12-28T09:39:31.223Z,5.15
2022-12-28T09:42:08.626Z,5.13
2022-12-28T09:44:45.679Z,4.20
2022-12-28T09:47:31.339Z,4.30
2022-12-28T09:50:16.041Z,4.60
2022-12-28T09:52:49.960Z,4.53
2022-12-28T09:55:18.879Z,4.10
2022-12-28T09:57:49.698Z,4.20
2022-12-28T10:00:22.737Z,4.27
2022-12-28T10:03:03.200Z,4.20
2022-12-28T10:05:30.412Z,4.07
2022-12-28T10:08:03.999Z,4.05
2022-12-28T10:10:30.831Z,3.92
2022-12-28T10:13:01.685Z,4.57
2022-12-28T10:15:28.950Z,4.00
2022-12-28T10:17:58.650Z,4.32
2022-12-28T10:20:28.033Z,4.70
2022-12-28T10:22:57.236Z,4.50
2022-12-28T10:25:29.744Z,4.65
2022-12-28T10:28:00.586Z,4.45
2022-12-28T10:30:27.859Z,4.33
2022-12-28T10:33:03.663Z,4.22
2022-12-28T10:35:41.794Z,4.32
2022-12-28T10:38:29.033Z,3.72
2022-12-28T10:41:05.122Z,4.10
2022-12-28T10:43:37.642Z,4.10
2022-12-28T10:46:14.871Z,4.30
2022-12-28T10:48:47.650Z,3.83
2022-12-28T10:51:23.565Z,3.72
2022-12-28T10:53:59.435Z,3.83
2022-12-28T10:56:31.394Z,3.63
2022-12-28T10:59:10.458Z,3.67
2022-12-28T11:01:40.667Z,3.70
2022-12-28T11:04:22.195Z,3.30
2022-12-28T11:07:02.570Z,3.55
2022-12-28T11:09:35.327Z,3.55
2022-12-28T11:12:29.155Z,3.50
2022-12-28T11:14:56.312Z,3.60
2022-12-28T11:17:30.925Z,3.67
2022-12-28T11:20:31.508Z,3.28
2022-12-28T11:22:58.867Z,3.53
2022-12-28T11:25:34.514Z,3.30
2022-12-28T11:28:06.096Z,3.50
2022-12-28T11:30:32.973Z,3.13
2022-12-28T11:33:06.923Z,3.28
2022-12-28T11:35:38.216Z,3.97
2022-12-28T11:38:07.503Z,3.47
2022-12-28T11:40:55.270Z,3.40
2022-12-28T11:43:39.550Z,3.33
2022-12-28T11:46:30.496Z,3.65
2022-12-28T11:49:03.671Z,3.78
2022-12-28T11:51:37.956Z,3.58
2022-12-28T11:54:38.744Z,3.33
2022-12-28T11:57:07.659Z,3.35
2022-12-28T11:59:35.776Z,2.83
2022-12-28T12:02:08.716Z,3.13
2022-12-28T12:04:43.632Z,3.35
2022-12-28T12:07:30.575Z,2.92
2022-12-28T12:10:30.227Z,2.80
2022-12-28T12:12:58.201Z,3.05
2022-12-28T12:15:34.763Z,3.40
2022-12-28T12:18:04.511Z,3.30
2022-12-28T12:20:52.414Z,2.90
2022-12-28T12:23:29.259Z,2.78
2022-12-28T12:26:00.834Z,2.70
2022-12-28T12:28:40.691Z,2.75
2022-12-28T12:31:12.800Z,2.85
2022-12-28T12:33:45.363Z,3.30
2022-12-28T12:36:30.723Z,3.20
2022-12-28T12:39:03.382Z,3.00
2022-12-28T12:41:52.988Z,3.60
2022-12-28T12:44:34.602Z,3.08
2022-12-28T12:47:13.774Z,2.72
2022-12-28T12:50:10.925Z,2.53
2022-12-28T12:52:52.643Z,3.22
2022-12-28T12:55:52.232Z,2.63
2022-12-28T12:58:29.953Z,3.20
2022-12-28T13:01:02.185Z,2.75
2022-12-28T13:03:43.870Z,3.17
2022-12-28T13:06:16.411Z,3.45
2022-12-28T13:09:06.001Z,3.03
2022-12-28T13:11:36.925Z,3.00
2022-12-28T13:14:04.394Z,3.03
2022-12-28T13:16:32.688Z,3.17
2022-12-28T13:19:05.194Z,2.75
2022-12-28T13:21:44.604Z,3.53
2022-12-28T13:24:23.576Z,3.33
2022-12-28T13:26:50.811Z,3.28
2022-12-28T13:29:23.223Z,3.17
2022-12-28T13:31:51.567Z,2.50
2022-12-28T13:34:20.140Z,2.70
2022-12-28T13:37:00.638Z,3.10
2022-12-28T13:39:29.400Z,2.95
2022-12-28T13:42:02.419Z,2.90
2022-12-28T13:44:41.010Z,2.70
2022-12-28T13:47:29.697Z,2.70
2022-12-28T13:50:14.504Z,2.90
2022-12-28T13:52:47.274Z,2.85
2022-12-28T13:55:20.433Z,2.88
2022-12-28T13:57:58.895Z,3.70
2022-12-28T14:00:27.193Z,3.95
2022-12-28T14:02:55.655Z,2.92
2022-12-28T14:05:25.921Z,3.72
2022-12-28T14:07:54.748Z,3.25
2022-12-28T14:10:23.145Z,3.28
2022-12-28T14:12:50.627Z,2.67
2022-12-28T14:15:18.385Z,3.45
2022-12-28T14:17:48.157Z,3.00
2022-12-28T14:20:15.453Z,3.72
2022-12-28T14:22:42.448Z,3.22
2022-12-28T14:25:12.338Z,4.03
2022-12-28T14:27:43.786Z,2.90
2022-12-28T14:30:39.487Z,3.70
2022-12-28T14:33:24.614Z,3.00
2022-12-28T14:36:03.523Z,3.47
2022-12-28T14:38:46.001Z,3.53
2022-12-28T14:41:27.856Z,3.10
2022-12-28T14:46:32.230Z,2.95
2022-12-28T14:48:59.872Z,2.67
2022-12-28T14:51:31.971Z,2.72
2022-12-28T14:54:24.549Z,2.80
2022-12-28T14:57:04.901Z,3.30
2022-12-28T14:59:38.133Z,3.15
2022-12-28T15:02:06.730Z,2.88
2022-12-28T15:04:39.395Z,3.20
2022-12-28T15:07:09.472Z,3.05
2022-12-28T15:09:36.318Z,3.00
2022-12-28T15:12:15.204Z,2.90
2022-12-28T15:14:42.629Z,3.40
2022-12-28T15:17:10.612Z,3.03
2022-12-28T15:19:37.515Z,3.38
2022-12-28T15:22:04.928Z,3.30
2022-12-28T15:24:34.216Z,3.00
2022-12-28T15:27:02.335Z,3.17
2022-12-28T15:32:16.073Z,3.38
2022-12-28T15:34:42.808Z,3.15
2022-12-28T15:37:09.739Z,2.97
2022-12-28T15:39:40.887Z,2.67
2022-12-28T15:42:07.926Z,3.67
2022-12-28T15:44:34.774Z,3.42
2022-12-28T15:47:01.904Z,2.90
2022-12-28T15:49:28.649Z,3.20
2022-12-28T15:51:55.416Z,2.97
2022-12-28T15:54:24.636Z,6.43
2022-12-28T15:56:53.587Z,38.53
2022-12-28T15:59:20.405Z,26.38
2022-12-28T16:01:47.735Z,22.55
2022-12-28T16:04:15.406Z,4.55
2022-12-28T16:06:44.908Z,3.35
2022-12-28T16:09:13.000Z,3.67
2022-12-28T16:11:40.672Z,3.28
2022-12-28T16:14:11.479Z,3.55
2022-12-28T16:16:40.094Z,3.10
2022-12-28T16:19:08.843Z,3.40
2022-12-28T16:21:36.197Z,2.65
2022-12-28T16:24:02.975Z,2.78
2022-12-28T16:26:29.947Z,2.70
2022-12-28T16:28:58.635Z,4.05
2022-12-28T16:31:28.372Z,3.10
2022-12-28T16:33:58.310Z,2.78
2022-12-28T16:36:25.907Z,3.60
2022-12-28T16:38:53.357Z,2.88
2022-12-28T16:41:21.155Z,3.60
2022-12-28T16:43:49.223Z,3.17
2022-12-28T16:46:16.679Z,2.50
2022-12-28T16:48:43.672Z,3.30
2022-12-28T16:51:11.990Z,3.67
2022-12-28T16:53:39.185Z,3.47
2022-12-28T16:56:06.538Z,3.50
2022-12-28T16:58:33.817Z,3.60
2022-12-28T17:01:08.049Z,3.72
2022-12-28T17:03:36.396Z,4.22
2022-12-28T17:06:03.664Z,4.47
2022-12-28T17:08:30.417Z,4.40
2022-12-28T17:10:57.534Z,3.70
2022-12-28T17:13:24.278Z,4.22
2022-12-28T17:15:53.598Z,4.70
2022-12-28T17:18:22.592Z,4.57
2022-12-28T17:20:51.499Z,7.40
2022-12-28T17:23:18.254Z,6.03
2022-12-28T17:25:50.965Z,5.40
2022-12-28T17:28:17.873Z,5.80
2022-12-28T17:30:44.651Z,5.80
2022-12-28T17:33:14.176Z,4.85
2022-12-28T17:35:43.641Z,5.80
2022-12-28T17:38:10.411Z,4.60
2022-12-28T17:40:40.071Z,5.82
2022-12-28T17:43:06.849Z,4.78
2022-12-28T17:45:36.020Z,4.32
2022-12-28T17:48:03.389Z,4.50
2022-12-28T17:50:30.067Z,5.22
2022-12-28T17:52:58.271Z,4.45
2022-12-28T17:55:24.960Z,4.40
2022-12-28T17:57:51.879Z,5.47
2022-12-28T18:00:19.066Z,5.32
2022-12-28T18:02:46.948Z,6.07
2022-12-28T18:05:14.431Z,5.45
2022-12-28T18:07:41.339Z,5.80
2022-12-28T18:10:09.072Z,5.78
2022-12-28T18:12:38.315Z,7.75
2022-12-28T18:15:08.890Z,5.90
2022-12-28T18:17:38.167Z,5.97
2022-12-28T18:20:05.444Z,6.43
2022-12-28T18:22:34.409Z,6.90
2022-12-28T18:25:05.893Z,7.15
2022-12-28T18:27:35.236Z,6.68
2022-12-28T18:30:02.316Z,6.43
2022-12-28T18:32:32.155Z,6.55
2022-12-28T18:34:58.950Z,5.72
2022-12-28T18:37:28.588Z,6.40
2022-12-28T18:39:55.415Z,6.55
2022-12-28T18:42:26.829Z,6.00
2022-12-28T18:44:53.748Z,5.85
2022-12-28T18:47:21.519Z,5.93
2022-12-28T18:49:51.091Z,6.13
2022-12-28T18:52:20.166Z,6.35
2022-12-28T18:54:47.030Z,6.65
2022-12-28T18:57:16.285Z,5.35
2022-12-28T18:59:45.461Z,5.97
2022-12-28T19:02:19.272Z,6.38
2022-12-28T19:04:46.713Z,6.55
2022-12-28T19:07:15.995Z,6.65
2022-12-28T19:10:08.055Z,6.65
2022-12-28T19:12:41.274Z,6.60
2022-12-28T19:15:11.561Z,7.20
2022-12-28T19:17:40.716Z,6.65
2022-12-28T19:20:08.335Z,6.55
2022-12-28T19:22:35.113Z,6.60
2022-12-28T19:25:01.914Z,6.47
2022-12-28T19:27:28.773Z,6.30
2022-12-28T19:29:57.868Z,5.70
2022-12-28T19:32:26.876Z,6.70
2022-12-28T19:34:53.694Z,5.95
2022-12-28T19:37:20.853Z,5.20
2022-12-28T19:39:47.568Z,6.57
2022-12-28T19:42:16.827Z,5.63
2022-12-28T19:44:43.533Z,5.70
2022-12-28T19:47:10.449Z,6.53
2022-12-28T19:49:37.155Z,5.55
2022-12-28T19:52:04.048Z,5.88
2022-12-28T19:54:31.980Z,6.28
2022-12-28T19:57:01.162Z,5.25
2022-12-28T19:59:27.922Z,5.32
2022-12-28T20:02:00.098Z,5.50
2022-12-28T20:04:27.298Z,5.18
2022-12-28T20:06:56.292Z,6.55
2022-12-28T20:09:23.005Z,4.25
2022-12-28T20:11:49.742Z,5.20
2022-12-28T20:14:21.801Z,4.68
2022-12-28T20:16:51.549Z,6.20
2022-12-28T20:19:19.400Z,5.10
2022-12-28T20:21:46.162Z,4.40
2022-12-28T20:24:13.268Z,5.65
2022-12-28T20:26:40.084Z,4.95
2022-12-28T20:29:06.874Z,4.57
2022-12-28T20:31:33.627Z,3.65
2022-12-28T20:34:01.657Z,3.67
2022-12-28T20:36:31.069Z,3.63
2022-12-28T20:38:57.832Z,4.15
2022-12-28T20:41:48.004Z,4.93
2022-12-28T20:44:26.167Z,3.80
2022-12-28T20:46:56.707Z,3.90
2022-12-28T20:49:25.235Z,3.88
2022-12-28T20:51:52.493Z,3.42
2022-12-28T20:54:21.975Z,3.30
2022-12-28T20:56:55.422Z,3.20
2022-12-28T20:59:24.908Z,3.50
2022-12-28T21:01:52.317Z,3.78
2022-12-28T21:04:24.015Z,3.53
2022-12-28T21:06:51.235Z,3.35
2022-12-28T21:09:18.078Z,3.50
2022-12-28T21:11:47.289Z,3.65
2022-12-28T21:14:14.098Z,3.63
2022-12-28T21:16:41.043Z,3.38
2022-12-28T21:19:12.985Z,3.38
2022-12-28T21:21:40.988Z,3.47
2022-12-28T21:24:08.055Z,3.00
2022-12-28T21:26:37.186Z,3.13
2022-12-28T21:29:11.764Z,2.90
2022-12-28T21:31:38.526Z,3.00
2022-12-28T21:34:05.679Z,3.28
2022-12-28T21:36:32.558Z,3.03
2022-12-28T21:38:59.849Z,2.85
2022-12-28T21:41:47.807Z,2.70
2022-12-28T21:44:24.373Z,3.10
2022-12-28T21:46:53.436Z,2.83
2022-12-28T21:49:21.116Z,2.97
2022-12-28T21:51:52.649Z,2.78
2022-12-28T21:54:21.631Z,3.03
2022-12-28T21:56:54.431Z,2.92
2022-12-28T21:59:26.009Z,2.75
2022-12-28T22:02:11.889Z,3.08
2022-12-28T22:05:02.440Z,3.42
2022-12-28T22:07:32.680Z,3.63
2022-12-28T22:10:17.967Z,3.67
2022-12-28T22:12:45.122Z,3.60
2022-12-28T22:15:34.969Z,4.22
2022-12-28T22:18:03.241Z,4.70
2022-12-28T22:20:30.471Z,4.68
2022-12-28T22:23:00.866Z,4.57
2022-12-28T22:25:29.346Z,4.53
2022-12-28T22:27:57.184Z,4.30
2022-12-28T22:30:25.240Z,5.05
2022-12-28T22:32:54.603Z,13.15
2022-12-28T22:35:21.970Z,6.50
2022-12-28T22:37:51.512Z,4.63
2022-12-28T22:40:18.640Z,3.70
2022-12-28T22:42:51.014Z,4.25
2022-12-28T22:45:20.575Z,4.00
2022-12-28T22:47:48.380Z,3.60
2022-12-28T22:50:17.852Z,3.22
2022-12-28T22:52:45.250Z,3.60
2022-12-28T22:55:12.029Z,3.45
2022-12-28T22:57:39.013Z,3.40
2022-12-28T23:00:08.611Z,3.30
2022-12-28T23:02:38.013Z,3.50
2022-12-28T23:05:07.639Z,3.55
2022-12-28T23:07:39.774Z,4.10
2022-12-28T23:10:10.163Z,3.65
2022-12-28T23:12:39.106Z,3.45
2022-12-28T23:15:22.109Z,3.30
2022-12-28T23:17:49.490Z,3.13
2022-12-28T23:20:39.850Z,3.17
2022-12-28T23:23:25.124Z,3.05
2022-12-28T23:26:10.249Z,2.80
2022-12-28T23:28:39.053Z,2.63
2022-12-28T23:31:08.044Z,2.90
2022-12-28T23:33:37.149Z,2.45
2022-12-28T23:36:04.738Z,2.60
2022-12-28T23:38:32.803Z,2.80
2022-12-28T23:41:22.448Z,2.78
2022-12-28T23:43:51.820Z,2.22
2022-12-28T23:46:19.771Z,2.72
2022-12-28T23:48:46.534Z,2.50
2022-12-28T23:51:13.279Z,2.38
2022-12-28T23:53:42.424Z,2.10
2022-12-28T23:56:09.484Z,2.20
2022-12-28T23:58:36.279Z,2.20
